createdAt,value
2022-08-07T00:00:26.901Z,14.01
2022-08-07T00:02:57.076Z,14.05
2022-08-07T00:05:26.567Z,14.09
2022-08-07T00:07:59.838Z,14.12
2022-08-07T00:10:31.570Z,14.14
2022-08-07T00:13:09.759Z,14.19
2022-08-07T00:15:54.782Z,14.23
2022-08-07T00:18:25.098Z,14.27
2022-08-07T00:20:54.103Z,14.35
2022-08-07T00:23:22.265Z,14.38
2022-08-07T00:25:59.258Z,14.43
2022-08-07T00:28:34.287Z,14.49
2022-08-07T00:31:06.094Z,14.58
2022-08-07T00:33:35.271Z,14.65
2022-08-07T00:36:06.815Z,14.68
2022-08-07T00:38:36.832Z,14.73
2022-08-07T00:41:10.055Z,14.76
2022-08-07T00:44:02.097Z,14.76
2022-08-07T00:46:33.024Z,14.75
2022-08-07T00:49:03.643Z,14.72
2022-08-07T00:51:58.767Z,14.72
2022-08-07T00:54:22.674Z,14.79
2022-08-07T00:56:51.812Z,14.80
2022-08-07T00:59:35.338Z,14.77
2022-08-07T01:02:09.005Z,14.82
2022-08-07T01:04:58.450Z,14.81
2022-08-07T01:07:31.247Z,14.80
2022-08-07T01:10:06.472Z,14.79
2022-08-07T01:12:53.206Z,14.73
2022-08-07T01:15:35.798Z,14.72
2022-08-07T01:18:16.948Z,14.67
2022-08-07T01:20:59.213Z,14.65
2022-08-07T01:23:34.661Z,14.64
2022-08-07T01:26:12.220Z,14.61
2022-08-07T01:28:45.907Z,14.55
2022-08-07T01:31:22.025Z,14.51
2022-08-07T01:33:56.355Z,14.54
2022-08-07T01:36:33.976Z,14.55
2022-08-07T01:39:12.624Z,14.55
2022-08-07T01:42:07.197Z,14.53
2022-08-07T01:44:38.167Z,14.54
2022-08-07T01:48:16.447Z,14.56
2022-08-07T01:49:55.387Z,14.58
2022-08-07T01:52:28.092Z,14.63
2022-08-07T01:55:00.711Z,14.68
2022-08-07T01:58:06.112Z,14.72
2022-08-07T02:00:30.702Z,14.73
2022-08-07T02:03:19.108Z,14.72
2022-08-07T02:05:59.915Z,14.69
2022-08-07T02:08:35.724Z,14.64
2022-08-07T02:11:06.810Z,14.60
2022-08-07T02:13:56.626Z,14.58
2022-08-07T02:16:33.661Z,14.54
2022-08-07T02:19:05.534Z,14.51
2022-08-07T02:21:57.738Z,14.47
2022-08-07T02:24:29.711Z,14.44
2022-08-07T02:27:02.854Z,14.41
2022-08-07T02:29:36.896Z,14.34
2022-08-07T02:32:18.661Z,14.34
2022-08-07T02:34:52.802Z,14.39
2022-08-07T02:37:26.362Z,14.41
2022-08-07T02:40:11.631Z,14.44
2022-08-07T02:42:49.135Z,14.45
2022-08-07T02:45:57.581Z,14.44
2022-08-07T02:48:10.264Z,14.40
2022-08-07T02:50:41.568Z,14.37
2022-08-07T02:53:12.505Z,14.30
2022-08-07T02:56:03.430Z,14.21
2022-08-07T02:58:36.588Z,14.10
2022-08-07T03:01:16.040Z,13.99
2022-08-07T03:03:50.575Z,13.91
2022-08-07T03:06:33.217Z,13.84
2022-08-07T03:09:04.069Z,13.79
2022-08-07T03:11:38.511Z,13.78
2022-08-07T03:14:10.079Z,13.78
2022-08-07T03:16:40.637Z,13.79
2022-08-07T03:19:11.639Z,13.75
2022-08-07T03:21:50.363Z,13.69
2022-08-07T03:24:27.527Z,13.67
2022-08-07T03:27:01.688Z,13.64
2022-08-07T03:29:50.733Z,13.63
2022-08-07T03:32:24.273Z,13.62
2022-08-07T03:35:00.792Z,13.59
2022-08-07T03:37:46.270Z,13.56
2022-08-07T03:40:27.426Z,13.52
2022-08-07T03:43:04.210Z,13.50
2022-08-07T03:45:43.456Z,13.51
2022-08-07T03:48:21.484Z,13.51
2022-08-07T03:50:52.045Z,13.54
2022-08-07T03:53:50.083Z,13.54
2022-08-07T03:56:32.684Z,13.55
2022-08-07T03:59:08.355Z,13.59
2022-08-07T04:01:45.446Z,13.63
2022-08-07T04:04:17.878Z,13.76
2022-08-07T04:06:50.776Z,13.79
2022-08-07T04:09:23.266Z,13.73
2022-08-07T04:12:28.231Z,13.74
2022-08-07T04:14:48.988Z,13.69
2022-08-07T04:17:22.209Z,13.68
2022-08-07T04:19:55.267Z,13.68
2022-08-07T04:22:29.999Z,13.69
2022-08-07T04:25:08.821Z,13.68
2022-08-07T04:27:46.175Z,13.69
2022-08-07T04:30:43.425Z,13.72
2022-08-07T04:33:23.760Z,13.76
2022-08-07T04:35:54.938Z,13.83
2022-08-07T04:38:27.959Z,13.89
2022-08-07T04:41:00.404Z,13.95
2022-08-07T04:44:11.783Z,13.98
2022-08-07T04:46:34.680Z,14.05
2022-08-07T04:49:17.891Z,14.11
2022-08-07T04:52:00.570Z,14.19
2022-08-07T04:54:32.550Z,14.26
2022-08-07T04:58:10.695Z,14.34
2022-08-07T05:00:12.687Z,14.40
2022-08-07T05:02:50.058Z,14.42
2022-08-07T05:05:53.605Z,14.41
2022-08-07T05:08:16.354Z,14.39
2022-08-07T05:10:47.066Z,14.41
2022-08-07T05:14:51.993Z,14.39
2022-08-07T05:16:10.014Z,14.43
2022-08-07T05:18:42.645Z,14.52
2022-08-07T05:21:14.567Z,14.63
2022-08-07T05:23:47.118Z,14.71
2022-08-07T05:26:23.608Z,14.78
2022-08-07T05:28:57.605Z,14.86
2022-08-07T05:31:34.801Z,14.92
2022-08-07T05:34:11.226Z,14.99
2022-08-07T05:36:49.221Z,15.10
2022-08-07T05:40:07.007Z,15.26
2022-08-07T05:42:34.315Z,15.41
2022-08-07T05:45:26.147Z,15.60
2022-08-07T05:48:01.862Z,15.63
2022-08-07T05:50:42.938Z,15.73
2022-08-07T05:54:13.096Z,15.87
2022-08-07T05:56:06.844Z,15.96
2022-08-07T05:58:52.480Z,16.09
2022-08-07T06:01:24.832Z,16.28
2022-08-07T06:03:58.873Z,16.42
2022-08-07T06:06:33.513Z,16.56
2022-08-07T06:09:06.779Z,16.65
2022-08-07T06:11:40.083Z,16.85
2022-08-07T06:14:13.032Z,16.94
2022-08-07T06:16:56.402Z,17.02
2022-08-07T06:19:52.211Z,17.11
2022-08-07T06:22:27.292Z,17.26
2022-08-07T06:25:18.478Z,17.32
2022-08-07T06:28:01.338Z,17.37
2022-08-07T06:30:37.228Z,17.49
2022-08-07T06:33:20.029Z,17.63
2022-08-07T06:36:13.089Z,17.87
2022-08-07T06:38:58.634Z,17.97
2022-08-07T06:42:01.138Z,18.06
2022-08-07T06:44:22.316Z,18.21
2022-08-07T06:46:53.591Z,18.29
2022-08-07T06:49:52.430Z,18.37
2022-08-07T06:52:36.675Z,18.47
2022-08-07T06:55:33.270Z,18.51
2022-08-07T06:58:04.173Z,18.63
2022-08-07T07:00:42.588Z,18.75
2022-08-07T07:03:13.836Z,18.90
2022-08-07T07:06:05.198Z,19.01
2022-08-07T07:08:39.925Z,19.09
2022-08-07T07:12:07.700Z,19.16
2022-08-07T07:14:08.564Z,19.12
2022-08-07T07:16:50.061Z,19.22
2022-08-07T07:19:56.553Z,19.37
2022-08-07T07:22:35.783Z,19.52
2022-08-07T07:26:33.289Z,19.64
2022-08-07T07:27:55.306Z,19.83
2022-08-07T07:30:38.071Z,19.84
2022-08-07T07:33:11.599Z,19.83
2022-08-07T07:36:04.954Z,19.88
2022-08-07T07:38:34.988Z,20.04
2022-08-07T07:41:05.895Z,20.17
2022-08-07T07:43:47.821Z,20.44
2022-08-07T07:46:36.937Z,20.46
2022-08-07T07:50:33.698Z,20.62
2022-08-07T07:52:13.096Z,20.81
2022-08-07T07:54:50.480Z,20.82
2022-08-07T07:57:51.574Z,20.71
2022-08-07T08:00:11.764Z,20.71
2022-08-07T08:03:04.606Z,20.80
2022-08-07T08:05:54.089Z,20.93
2022-08-07T08:08:34.581Z,21.10
2022-08-07T08:11:13.433Z,21.28
2022-08-07T08:13:54.929Z,21.39
2022-08-07T08:16:30.930Z,21.46
2022-08-07T08:19:17.591Z,21.50
2022-08-07T08:22:10.633Z,21.67
2022-08-07T08:25:09.419Z,21.73
2022-08-07T08:27:57.196Z,21.85
2022-08-07T08:30:32.238Z,22.00
2022-08-07T08:33:05.653Z,22.17
2022-08-07T08:35:49.884Z,22.24
2022-08-07T08:38:29.402Z,22.35
2022-08-07T08:41:02.993Z,22.38
2022-08-07T08:43:42.593Z,22.57
2022-08-07T08:46:22.563Z,22.85
2022-08-07T08:48:56.977Z,23.00
2022-08-07T08:51:49.913Z,22.87
2022-08-07T08:54:21.842Z,22.76
2022-08-07T08:56:53.922Z,22.94
2022-08-07T08:59:26.971Z,23.06
2022-08-07T09:01:59.930Z,23.29
2022-08-07T09:04:31.833Z,23.55
2022-08-07T09:07:04.444Z,23.69
2022-08-07T09:09:56.838Z,23.90
2022-08-07T09:12:32.275Z,23.97
2022-08-07T09:16:22.758Z,24.09
2022-08-07T09:18:22.670Z,24.29
2022-08-07T09:21:00.971Z,24.36
2022-08-07T09:24:53.999Z,24.10
2022-08-07T09:26:33.219Z,24.05
2022-08-07T09:30:04.953Z,24.14
2022-08-07T09:31:58.406Z,23.92
2022-08-07T09:34:33.001Z,23.74
2022-08-07T09:37:03.135Z,23.81
2022-08-07T09:39:54.730Z,24.23
2022-08-07T09:42:42.366Z,24.63
2022-08-07T09:47:25.742Z,24.07
2022-08-07T09:48:19.171Z,23.54
2022-08-07T09:50:52.843Z,23.37
2022-08-07T09:53:24.612Z,23.45
2022-08-07T09:56:05.512Z,23.72
2022-08-07T09:58:58.883Z,24.13
2022-08-07T10:01:52.186Z,24.62
2022-08-07T10:04:32.781Z,24.96
2022-08-07T10:07:24.457Z,25.19
2022-08-07T10:10:12.082Z,25.40
2022-08-07T10:13:05.276Z,25.63
2022-08-07T10:15:49.058Z,25.79
2022-08-07T10:18:26.301Z,25.79
2022-08-07T10:21:03.124Z,26.01
2022-08-07T10:24:04.875Z,25.79
2022-08-07T10:26:44.638Z,25.14
2022-08-07T10:29:40.420Z,24.38
2022-08-07T10:32:36.979Z,24.49
2022-08-07T10:35:20.836Z,25.17
2022-08-07T10:38:20.815Z,25.35
2022-08-07T10:40:50.279Z,25.69
2022-08-07T10:43:34.418Z,25.81
2022-08-07T10:46:08.600Z,25.74
2022-08-07T10:48:44.320Z,25.69
2022-08-07T10:51:57.332Z,25.79
2022-08-07T10:54:12.768Z,25.71
2022-08-07T10:56:45.373Z,25.93
2022-08-07T10:59:22.098Z,26.17
2022-08-07T11:02:05.045Z,26.40
2022-08-07T11:04:51.313Z,26.69
2022-08-07T11:07:58.751Z,26.89
2022-08-07T11:10:27.570Z,26.81
2022-08-07T11:13:02.499Z,26.92
2022-08-07T11:15:33.410Z,27.01
2022-08-07T11:18:04.637Z,26.78
2022-08-07T11:20:41.457Z,26.36
2022-08-07T11:23:20.792Z,26.18
2022-08-07T11:26:06.713Z,26.07
2022-08-07T11:28:37.298Z,26.32
2022-08-07T11:31:11.462Z,26.77
2022-08-07T11:33:59.663Z,26.95
2022-08-07T11:36:49.668Z,27.31
2022-08-07T11:39:25.464Z,27.52
2022-08-07T11:42:18.625Z,27.57
2022-08-07T11:44:57.864Z,26.82
2022-08-07T11:47:59.232Z,26.35
2022-08-07T11:50:35.259Z,26.82
2022-08-07T11:53:17.515Z,27.13
2022-08-07T11:56:25.418Z,27.20
2022-08-07T11:58:55.391Z,27.08
2022-08-07T12:01:59.660Z,27.22
2022-08-07T12:04:39.444Z,26.62
2022-08-07T12:07:18.838Z,25.79
2022-08-07T12:09:58.269Z,25.30
2022-08-07T12:12:42.881Z,25.65
2022-08-07T12:15:35.600Z,26.07
2022-08-07T12:18:13.372Z,26.50
2022-08-07T12:20:49.304Z,26.81
2022-08-07T12:24:06.351Z,27.07
2022-08-07T12:26:28.937Z,27.23
2022-08-07T12:29:02.756Z,27.55
2022-08-07T12:31:52.699Z,27.58
2022-08-07T12:34:25.983Z,27.64
2022-08-07T12:36:57.728Z,27.62
2022-08-07T12:39:44.282Z,27.77
2022-08-07T12:42:27.359Z,27.88
2022-08-07T12:44:58.041Z,27.76
2022-08-07T12:47:33.743Z,27.56
2022-08-07T12:50:39.396Z,27.50
2022-08-07T12:53:17.671Z,27.63
2022-08-07T12:56:02.119Z,27.83
2022-08-07T12:58:37.644Z,27.75
2022-08-07T13:01:17.053Z,27.59
2022-08-07T13:04:13.787Z,27.51
2022-08-07T13:07:07.999Z,27.60
2022-08-07T13:10:20.052Z,27.52
2022-08-07T13:12:39.030Z,27.29
2022-08-07T13:15:23.757Z,27.15
2022-08-07T13:18:04.324Z,27.36
2022-08-07T13:20:36.668Z,27.41
2022-08-07T13:23:09.787Z,27.36
2022-08-07T13:26:01.563Z,27.30
2022-08-07T13:28:34.842Z,27.19
2022-08-07T13:31:13.508Z,27.13
2022-08-07T13:34:29.852Z,27.12
2022-08-07T13:36:42.342Z,26.95
2022-08-07T13:39:28.576Z,26.91
2022-08-07T13:42:07.574Z,27.09
2022-08-07T13:44:39.121Z,27.15
2022-08-07T13:47:10.814Z,27.16
2022-08-07T13:50:35.436Z,27.10
2022-08-07T13:52:41.413Z,26.93
2022-08-07T13:55:19.590Z,26.97
2022-08-07T13:58:28.061Z,26.77
2022-08-07T14:01:08.789Z,26.60
2022-08-07T14:04:06.727Z,26.54
2022-08-07T14:06:33.122Z,26.42
2022-08-07T14:09:04.525Z,26.37
2022-08-07T14:11:53.579Z,26.39
2022-08-07T14:14:30.916Z,26.34
2022-08-07T14:17:32.042Z,26.35
2022-08-07T14:20:41.126Z,26.33
2022-08-07T14:22:46.842Z,26.22
2022-08-07T14:25:18.145Z,26.19
2022-08-07T14:28:20.997Z,26.10
2022-08-07T14:30:40.987Z,26.20
2022-08-07T14:33:10.154Z,26.13
2022-08-07T14:35:47.648Z,25.97
2022-08-07T14:38:26.437Z,25.88
2022-08-07T14:43:57.950Z,25.69
2022-08-07T14:49:57.665Z,25.63
2022-08-07T14:52:27.598Z,25.46
2022-08-07T14:54:56.925Z,25.32
2022-08-07T14:57:54.436Z,25.28
2022-08-07T15:00:29.721Z,25.12
2022-08-07T15:03:00.210Z,25.08
2022-08-07T15:05:55.026Z,25.06
2022-08-07T15:08:35.355Z,25.08
2022-08-07T15:14:10.919Z,24.69
2022-08-07T15:25:19.377Z,24.35
2022-08-07T15:31:04.634Z,24.24
2022-08-07T15:33:33.466Z,24.19
2022-08-07T15:38:59.629Z,24.03
2022-08-07T15:42:44.389Z,23.97
2022-08-07T15:44:23.543Z,23.90
2022-08-07T15:46:58.020Z,23.83
2022-08-07T15:50:04.212Z,23.77
2022-08-07T15:52:30.730Z,23.75
2022-08-07T15:55:02.831Z,23.65
2022-08-07T15:57:47.627Z,23.57
2022-08-07T16:00:31.237Z,23.53
2022-08-07T16:03:05.444Z,23.50
2022-08-07T16:05:34.770Z,23.46
2022-08-07T16:08:33.333Z,23.41
2022-08-07T16:10:59.154Z,23.28
2022-08-07T16:13:58.684Z,23.20
2022-08-07T16:16:47.755Z,23.14
2022-08-07T16:19:43.041Z,23.06
2022-08-07T16:22:37.825Z,22.98
2022-08-07T16:25:22.868Z,22.95
2022-08-07T16:28:01.891Z,22.84
2022-08-07T16:30:35.858Z,22.78
2022-08-07T16:34:01.922Z,22.73
2022-08-07T16:36:20.241Z,22.62
2022-08-07T16:39:06.255Z,22.53
2022-08-07T16:41:54.153Z,22.51
2022-08-07T16:45:04.086Z,22.48
2022-08-07T16:47:51.528Z,22.44
2022-08-07T16:50:38.994Z,22.32
2022-08-07T16:53:57.197Z,22.24
2022-08-07T16:56:19.114Z,22.16
2022-08-07T16:59:14.838Z,22.09
2022-08-07T17:02:09.189Z,22.01
2022-08-07T17:04:57.906Z,21.95
2022-08-07T17:07:55.192Z,21.87
2022-08-07T17:10:33.747Z,21.79
2022-08-07T17:13:41.610Z,21.72
2022-08-07T17:16:18.097Z,21.64
2022-08-07T17:18:50.736Z,21.56
2022-08-07T17:21:22.978Z,21.46
2022-08-07T17:24:04.192Z,21.37
2022-08-07T17:26:50.199Z,21.28
2022-08-07T17:30:18.421Z,21.18
2022-08-07T17:32:30.938Z,21.07
2022-08-07T17:35:09.200Z,20.96
2022-08-07T17:38:06.707Z,20.83
2022-08-07T17:40:50.600Z,20.68
2022-08-07T17:44:00.840Z,20.50
2022-08-07T17:46:15.226Z,20.35
2022-08-07T17:48:50.369Z,20.25
2022-08-07T17:51:22.971Z,20.12
2022-08-07T17:54:00.711Z,19.98
2022-08-07T17:56:33.005Z,19.81
2022-08-07T17:59:05.331Z,19.66
2022-08-07T18:01:45.122Z,19.52
2022-08-07T18:04:30.748Z,19.37
2022-08-07T18:07:20.456Z,19.45
2022-08-07T18:10:07.533Z,19.31
2022-08-07T18:13:09.776Z,19.09
2022-08-07T18:15:44.592Z,18.98
2022-08-07T18:18:45.173Z,18.86
2022-08-07T18:21:41.459Z,18.76
2022-08-07T18:24:07.350Z,18.68
2022-08-07T18:26:54.741Z,18.61
2022-08-07T18:30:08.246Z,18.54
2022-08-07T18:32:28.343Z,18.48
2022-08-07T18:35:08.732Z,18.39
2022-08-07T18:38:56.139Z,18.25
2022-08-07T18:40:50.104Z,18.07
2022-08-07T18:43:36.976Z,17.88
2022-08-07T18:46:24.620Z,17.81
2022-08-07T18:50:19.507Z,17.81
2022-08-07T18:52:34.935Z,17.79
2022-08-07T18:54:49.803Z,17.74
2022-08-07T18:57:40.422Z,17.71
2022-08-07T19:00:32.577Z,17.69
2022-08-07T19:03:04.470Z,17.68
2022-08-07T19:06:02.408Z,17.65
2022-08-07T19:08:36.444Z,17.58
2022-08-07T19:11:35.209Z,17.52
2022-08-07T19:14:02.582Z,17.44
2022-08-07T19:17:04.945Z,17.39
2022-08-07T19:19:36.908Z,17.31
2022-08-07T19:22:11.165Z,17.22
2022-08-07T19:24:48.037Z,17.16
2022-08-07T19:28:29.663Z,17.08
2022-08-07T19:31:04.299Z,16.97
2022-08-07T19:33:10.251Z,16.87
2022-08-07T19:35:43.888Z,16.76
2022-08-07T19:38:17.250Z,16.68
2022-08-07T19:40:50.545Z,16.64
2022-08-07T19:43:21.651Z,16.60
2022-08-07T19:46:10.897Z,16.51
2022-08-07T19:48:43.990Z,16.41
2022-08-07T19:51:52.212Z,16.30
2022-08-07T19:54:55.835Z,16.20
2022-08-07T19:58:00.291Z,16.11
2022-08-07T20:00:29.447Z,16.01
2022-08-07T20:03:03.401Z,15.87
2022-08-07T20:05:59.991Z,15.70
2022-08-07T20:08:33.097Z,15.56
2022-08-07T20:11:09.916Z,15.45
2022-08-07T20:13:45.739Z,15.35
2022-08-07T20:16:32.148Z,15.29
2022-08-07T20:19:12.318Z,15.27
2022-08-07T20:21:47.672Z,15.21
2022-08-07T20:24:22.020Z,15.07
2022-08-07T20:26:54.489Z,14.97
2022-08-07T20:29:46.790Z,14.84
2022-08-07T20:32:25.283Z,14.75
2022-08-07T20:34:57.437Z,14.63
2022-08-07T20:37:30.278Z,14.54
2022-08-07T20:40:33.250Z,14.49
2022-08-07T20:42:56.259Z,14.51
2022-08-07T20:45:32.651Z,14.51
2022-08-07T20:48:25.827Z,14.44
2022-08-07T20:50:59.863Z,14.39
2022-08-07T20:54:02.804Z,14.40
2022-08-07T20:56:25.789Z,14.35
2022-08-07T20:58:58.626Z,14.31
2022-08-07T21:01:29.860Z,14.20
2022-08-07T21:04:23.418Z,14.11
2022-08-07T21:06:56.944Z,14.01
2022-08-07T21:09:51.904Z,13.94
2022-08-07T21:12:29.116Z,13.84
2022-08-07T21:15:01.275Z,13.77
2022-08-07T21:18:29.772Z,13.75
2022-08-07T21:20:26.535Z,13.68
2022-08-07T21:23:08.375Z,13.59
2022-08-07T21:25:43.582Z,13.50
2022-08-07T21:28:18.934Z,13.48
2022-08-07T21:31:07.932Z,13.49
2022-08-07T21:33:41.358Z,13.45
2022-08-07T21:36:32.418Z,13.38
2022-08-07T21:39:45.433Z,13.32
2022-08-07T21:42:02.642Z,13.33
2022-08-07T21:44:39.705Z,13.30
2022-08-07T21:47:12.432Z,13.29
2022-08-07T21:51:04.091Z,13.62
2022-08-07T21:53:37.044Z,13.54
2022-08-07T21:56:36.122Z,13.46
2022-08-07T21:59:11.032Z,13.40
2022-08-07T22:02:11.024Z,13.32
2022-08-07T22:04:53.923Z,13.29
2022-08-07T22:07:42.780Z,13.21
2022-08-07T22:10:20.429Z,13.16
2022-08-07T22:12:55.088Z,13.10
2022-08-07T22:16:39.130Z,13.11
2022-08-07T22:18:25.323Z,13.03
2022-08-07T22:21:01.668Z,12.91
2022-08-07T22:23:40.438Z,12.80
2022-08-07T22:26:19.844Z,12.72
2022-08-07T22:28:57.079Z,12.65
2022-08-07T22:31:59.329Z,12.54
2022-08-07T22:34:37.038Z,12.48
2022-08-07T22:37:14.112Z,12.43
2022-08-07T22:39:58.643Z,12.39
2022-08-07T22:42:32.226Z,12.34
2022-08-07T22:45:13.298Z,12.29
2022-08-07T22:48:31.785Z,12.24
2022-08-07T22:51:25.900Z,12.28
2022-08-07T22:54:27.641Z,12.34
2022-08-07T22:57:07.402Z,12.36
2022-08-07T22:59:52.559Z,12.29
2022-08-07T23:02:47.862Z,12.26
2022-08-07T23:06:07.514Z,12.19
2022-08-07T23:08:47.825Z,12.15
2022-08-07T23:11:44.277Z,12.06
2022-08-07T23:14:47.511Z,12.02
2022-08-07T23:17:51.412Z,11.94
2022-08-07T23:20:52.379Z,11.89
2022-08-07T23:24:06.297Z,11.85
2022-08-07T23:27:02.184Z,11.75
2022-08-07T23:30:37.970Z,11.65
2022-08-07T23:34:34.557Z,11.64
2022-08-07T23:35:56.112Z,11.60
2022-08-07T23:38:42.916Z,11.58
2022-08-07T23:41:24.480Z,11.61
2022-08-07T23:44:35.933Z,11.63
2022-08-07T23:47:24.155Z,11.65
2022-08-07T23:50:11.755Z,11.73
2022-08-07T23:53:05.422Z,11.72
2022-08-07T23:55:47.153Z,11.63
2022-08-07T23:58:31.201Z,11.60
